Time;durP1;ratioP1;P1;durP2;ratioP2;P2;SDS_P1;SDS_P2;PMS_P1;PMS_P2;Temp;Humidity;BMP_temperature;BMP_pressure;BME280_temperature;BME280_humidity;BME280_pressure;Samples;Min_cycle;Max_cycle;Signal;HPM_P1;HPM_P2
2022/10/15 00:01:38;;;;;;;13.95;11.35;;;13.40;99.90;;;;;;4320733;28;10000261;-76
2022/10/15 00:04:04;;;;;;;15.35;11.68;;;13.40;99.90;;;;;;5019584;28;20025;-77
2022/10/15 00:06:30;;;;;;;12.15;10.90;;;13.40;99.90;;;;;;5030579;28;20116;-76
2022/10/15 00:08:56;;;;;;;13.55;11.02;;;13.40;99.90;;;;;;5025978;28;20037;-76
2022/10/15 00:11:25;;;;;;;13.30;10.40;;;13.40;99.90;;;;;;5031882;28;20151;-76
2022/10/15 00:13:56;;;;;;;11.95;10.10;;;13.30;99.90;;;;;;5023778;28;20409;-76
2022/10/15 00:16:24;;;;;;;11.23;9.82;;;13.30;99.90;;;;;;5022435;28;20025;-77
2022/10/15 00:18:51;;;;;;;14.70;10.27;;;13.40;99.90;;;;;;5031830;28;20393;-76
2022/10/15 00:21:20;;;;;;;12.75;9.20;;;13.30;99.90;;;;;;5034114;28;20028;-77
2022/10/15 00:23:46;;;;;;;10.75;8.48;;;13.30;99.90;;;;;;5035857;28;20032;-76
2022/10/15 00:26:15;;;;;;;10.15;8.43;;;13.30;99.90;;;;;;5031088;28;23660;-76
2022/10/15 00:28:40;;;;;;;10.70;8.02;;;13.30;99.90;;;;;;5025277;28;20597;-77
2022/10/15 00:31:12;;;;;;;9.23;7.80;;;13.30;99.90;;;;;;5032645;28;20033;-77
2022/10/15 00:33:38;;;;;;;8.93;8.02;;;13.30;99.90;;;;;;5027760;28;20223;-77
2022/10/15 00:36:10;;;;;;;8.82;7.43;;;13.30;99.90;;;;;;5022277;28;20462;-77
2022/10/15 00:38:36;;;;;;;8.02;7.20;;;13.30;99.90;;;;;;5027207;28;20044;-76
2022/10/15 00:41:04;;;;;;;10.40;7.85;;;13.20;99.90;;;;;;5021597;28;20317;-77
2022/10/15 00:43:37;;;;;;;8.15;7.25;;;13.20;99.90;;;;;;5024587;28;20345;-77
2022/10/15 00:46:03;;;;;;;8.65;7.35;;;13.20;99.90;;;;;;5032448;28;20091;-77
2022/10/15 00:48:31;;;;;;;9.18;7.30;;;13.20;99.90;;;;;;5032053;28;20068;-77
2022/10/15 00:51:03;;;;;;;7.90;7.10;;;13.20;99.90;;;;;;5025212;28;20633;-76
2022/10/15 00:53:28;;;;;;;7.18;6.45;;;13.20;99.90;;;;;;5027476;28;20124;-76
2022/10/15 00:55:54;;;;;;;9.75;7.05;;;13.20;99.90;;;;;;5029509;28;20501;-76
2022/10/15 00:58:26;;;;;;;7.25;6.40;;;13.20;99.90;;;;;;5025990;28;20025;-76
2022/10/15 01:00:53;;;;;;;7.75;5.88;;;13.10;99.90;;;;;;5024450;28;20025;-76
2022/10/15 01:03:19;;;;;;;8.55;5.00;;;13.10;99.90;;;;;;5029287;28;20021;-76
2022/10/15 01:05:47;;;;;;;6.10;5.13;;;13.10;99.90;;;;;;5030317;28;20028;-76
2022/10/15 01:08:13;;;;;;;4.43;4.03;;;13.20;99.90;;;;;;5021226;28;20028;-77
2022/10/15 01:11:07;;;;;;;5.40;4.80;;;13.10;99.90;;;;;;5024464;28;20036;-76
2022/10/15 01:14:01;;;;;;;5.38;4.22;;;13.10;99.90;;;;;;5026621;28;20437;-76
2022/10/15 01:16:41;;;;;;;7.57;4.50;;;13.10;99.90;;;;;;5020333;28;20029;-76
2022/10/15 01:19:26;;;;;;;4.43;4.00;;;13.10;99.90;;;;;;5019262;28;20033;-77
2022/10/15 01:22:06;;;;;;;4.85;4.30;;;13.10;99.90;;;;;;5031823;28;20423;-77
2022/10/15 01:24:34;;;;;;;6.40;4.53;;;13.10;99.90;;;;;;5026462;28;20025;-77
2022/10/15 01:27:21;;;;;;;5.22;4.72;;;13.10;99.90;;;;;;5018828;28;20452;-76
2022/10/15 01:30:04;;;;;;;4.95;4.45;;;13.10;99.90;;;;;;5015386;28;142931;-77
2022/10/15 01:33:03;;;;;;;5.25;4.50;;;13.00;99.90;;;;;;5027609;28;20043;-77
2022/10/15 01:35:50;;;;;;;7.30;4.85;;;13.00;99.90;;;;;;5028861;28;20029;-76
2022/10/15 01:38:44;;;;;;;4.97;4.50;;;13.00;99.90;;;;;;5032812;28;20034;-77
2022/10/15 01:41:18;;;;;;;6.18;4.93;;;13.00;99.90;;;;;;5023466;28;20536;-76
2022/10/15 01:44:06;;;;;;;4.95;4.45;;;13.00;99.90;;;;;;5016301;28;20088;-77
2022/10/15 01:47:01;;;;;;;6.13;5.32;;;13.00;99.90;;;;;;5030535;28;20537;-77
2022/10/15 01:49:31;;;;;;;8.48;4.90;;;13.00;99.90;;;;;;5029067;28;20042;-76
2022/10/15 01:52:01;;;;;;;5.57;4.93;;;13.00;99.90;;;;;;5032988;28;20024;-76
2022/10/15 01:54:27;;;;;;;5.50;5.00;;;13.00;99.90;;;;;;5027850;28;20348;-77
2022/10/15 01:56:54;;;;;;;7.18;5.53;;;13.00;99.90;;;;;;5024180;28;20390;-77
2022/10/15 01:59:27;;;;;;;5.50;4.70;;;13.10;99.90;;;;;;5024418;28;20119;-77
2022/10/15 02:01:53;;;;;;;6.15;5.28;;;13.10;99.90;;;;;;5021695;28;20034;-76
2022/10/15 02:04:24;;;;;;;5.40;4.40;;;13.00;99.90;;;;;;5030321;28;20021;-77
2022/10/15 02:07:03;;;;;;;6.30;3.88;;;13.10;99.90;;;;;;5031681;28;20029;-76
2022/10/15 02:09:52;;;;;;;4.18;3.78;;;13.10;99.90;;;;;;5029476;28;20029;-76
2022/10/15 02:12:48;;;;;;;4.45;4.05;;;13.00;99.90;;;;;;5032343;28;20065;-76
2022/10/15 02:15:34;;;;;;;4.00;3.60;;;13.00;99.90;;;;;;5021734;28;20036;-77
2022/10/15 02:18:20;;;;;;;5.85;4.20;;;13.00;99.90;;;;;;5028988;28;20089;-76
2022/10/15 02:21:06;;;;;;;4.53;3.92;;;13.00;99.90;;;;;;5025796;28;20036;-76
2022/10/15 02:23:51;;;;;;;4.53;4.10;;;13.00;99.90;;;;;;5034573;28;20122;-76
2022/10/15 02:26:19;;;;;;;6.85;4.53;;;13.00;99.90;;;;;;5032137;28;20033;-76
2022/10/15 02:28:51;;;;;;;5.78;4.70;;;13.00;99.90;;;;;;5028836;28;20105;-76
2022/10/15 02:31:19;;;;;;;6.63;4.63;;;13.00;99.90;;;;;;5025341;28;20264;-76
2022/10/15 02:33:47;;;;;;;4.78;4.30;;;13.00;99.90;;;;;;5025407;28;20540;-76
2022/10/15 02:36:13;;;;;;;8.15;4.93;;;13.00;99.90;;;;;;5024625;28;20029;-76
2022/10/15 02:38:41;;;;;;;5.72;4.38;;;13.00;99.90;;;;;;5025212;28;20114;-76
2022/10/15 02:41:08;;;;;;;5.47;4.70;;;13.00;99.90;;;;;;5028830;28;20048;-76
2022/10/15 02:43:34;;;;;;;5.40;4.90;;;13.00;99.90;;;;;;5019361;28;20029;-77
2022/10/15 02:46:00;;;;;;;5.38;4.60;;;13.00;99.90;;;;;;5027344;28;20073;-76
2022/10/15 02:48:26;;;;;;;5.60;4.80;;;13.00;99.90;;;;;;5020097;28;20235;-77
2022/10/15 02:50:52;;;;;;;6.15;4.97;;;13.10;99.90;;;;;;5025263;28;20422;-76
2022/10/15 02:53:17;;;;;;;6.45;5.50;;;13.00;99.90;;;;;;5023635;28;20029;-76
2022/10/15 02:55:43;;;;;;;6.10;5.50;;;13.00;99.90;;;;;;5023271;28;20587;-76
2022/10/15 02:58:08;;;;;;;7.55;6.47;;;13.10;99.90;;;;;;5026708;28;20025;-76
2022/10/15 03:00:34;;;;;;;8.45;6.55;;;13.10;99.90;;;;;;5017851;28;20047;-76
2022/10/15 03:03:00;;;;;;;7.22;6.50;;;13.10;99.90;;;;;;5028441;28;20021;-76
2022/10/15 03:05:25;;;;;;;7.22;6.50;;;13.10;99.90;;;;;;5028619;28;20380;-76
2022/10/15 03:07:51;;;;;;;8.98;7.13;;;13.10;99.90;;;;;;5026190;28;20049;-76
2022/10/15 03:10:17;;;;;;;9.13;7.28;;;13.10;99.90;;;;;;5025486;28;20030;-76
2022/10/15 03:12:43;;;;;;;7.00;6.22;;;13.10;99.90;;;;;;5028374;28;20494;-76
2022/10/15 03:15:08;;;;;;;7.55;6.75;;;13.10;99.90;;;;;;5020444;28;20328;-76
2022/10/15 03:17:34;;;;;;;8.63;7.15;;;13.10;99.90;;;;;;5025083;28;20060;-76
2022/10/15 03:20:00;;;;;;;8.75;7.53;;;13.00;99.90;;;;;;5021043;28;20040;-77
2022/10/15 03:22:25;;;;;;;9.68;8.23;;;13.10;99.90;;;;;;5031061;28;20017;-77
2022/10/15 03:24:51;;;;;;;9.50;8.57;;;13.10;99.90;;;;;;5026429;28;20067;-77
2022/10/15 03:27:16;;;;;;;9.23;7.88;;;13.00;99.90;;;;;;5018864;28;20565;-77
2022/10/15 03:29:42;;;;;;;10.68;8.55;;;13.00;99.90;;;;;;5021842;28;20059;-77
2022/10/15 03:32:08;;;;;;;11.38;8.68;;;13.10;99.90;;;;;;5027591;28;20356;-77
2022/10/15 03:34:33;;;;;;;10.13;8.45;;;13.10;99.90;;;;;;5033001;28;20104;-77
2022/10/15 03:36:59;;;;;;;10.65;8.15;;;13.10;99.90;;;;;;5025532;28;20381;-77
2022/10/15 03:39:24;;;;;;;10.77;8.32;;;13.10;99.90;;;;;;5030061;28;20119;-77
2022/10/15 03:41:52;;;;;;;10.02;8.30;;;13.10;99.90;;;;;;5025955;28;20082;-77
2022/10/15 03:44:18;;;;;;;10.68;8.50;;;13.10;99.90;;;;;;5028335;28;20061;-77
2022/10/15 03:46:44;;;;;;;11.32;8.65;;;13.10;99.90;;;;;;5032075;28;20505;-77
2022/10/15 03:49:10;;;;;;;10.65;8.65;;;13.10;99.90;;;;;;5036365;28;20029;-77
2022/10/15 03:51:36;;;;;;;12.68;8.57;;;13.10;99.90;;;;;;5023362;28;20033;-77
2022/10/15 03:54:02;;;;;;;11.75;8.35;;;13.10;99.90;;;;;;5026802;28;20032;-77
2022/10/15 03:56:28;;;;;;;12.13;9.48;;;13.10;99.90;;;;;;5026545;28;20127;-77
2022/10/15 03:58:54;;;;;;;12.90;10.35;;;13.10;99.90;;;;;;5024131;28;20550;-77
2022/10/15 04:01:19;;;;;;;11.13;9.18;;;13.10;99.90;;;;;;5024738;28;20021;-77
2022/10/15 04:03:45;;;;;;;11.93;9.18;;;13.10;99.90;;;;;;5023426;28;20059;-77
2022/10/15 04:06:12;;;;;;;10.95;8.80;;;13.10;99.90;;;;;;5022830;28;20025;-77
2022/10/15 04:08:37;;;;;;;10.82;8.52;;;13.10;99.90;;;;;;5026426;28;20106;-77
2022/10/15 04:11:03;;;;;;;9.80;7.85;;;13.10;99.90;;;;;;5032291;28;20018;-77
2022/10/15 04:13:29;;;;;;;10.85;8.70;;;13.10;99.90;;;;;;5024051;28;20441;-77
2022/10/15 04:15:54;;;;;;;8.57;7.55;;;13.10;99.90;;;;;;5024387;28;20037;-77
2022/10/15 04:18:21;;;;;;;10.50;8.00;;;13.10;99.90;;;;;;5026396;28;20029;-77
2022/10/15 04:20:48;;;;;;;12.38;8.95;;;13.10;99.90;;;;;;5023861;28;20108;-78
2022/10/15 04:23:14;;;;;;;9.80;8.43;;;13.10;99.90;;;;;;5028206;28;20031;-77
2022/10/15 04:25:40;;;;;;;11.05;8.65;;;13.10;99.90;;;;;;5032018;28;20057;-78
2022/10/15 04:28:05;;;;;;;11.55;8.98;;;13.10;99.90;;;;;;5021578;28;20367;-77
2022/10/15 04:30:31;;;;;;;9.55;7.75;;;13.10;99.90;;;;;;5034287;28;20033;-77
2022/10/15 04:32:57;;;;;;;12.95;9.77;;;13.10;99.90;;;;;;5031478;28;20563;-77
2022/10/15 04:35:22;;;;;;;10.68;8.90;;;13.10;99.90;;;;;;5025827;28;20086;-77
2022/10/15 04:37:48;;;;;;;13.57;10.25;;;13.10;99.90;;;;;;5024848;28;20500;-77
2022/10/15 04:40:14;;;;;;;12.35;8.90;;;13.10;99.90;;;;;;5029974;28;20059;-77
2022/10/15 04:42:39;;;;;;;11.93;9.65;;;13.10;99.90;;;;;;5023568;28;20520;-77
2022/10/15 04:45:06;;;;;;;11.20;8.68;;;13.10;99.90;;;;;;5029450;28;20017;-77
2022/10/15 04:47:32;;;;;;;10.45;8.10;;;13.10;99.90;;;;;;5035927;28;20037;-77
2022/10/15 04:49:58;;;;;;;11.98;9.52;;;13.10;99.90;;;;;;5028788;28;20029;-77
2022/10/15 04:52:23;;;;;;;11.02;9.00;;;13.10;99.90;;;;;;5028640;28;20026;-77
2022/10/15 04:54:49;;;;;;;13.70;10.32;;;13.10;99.90;;;;;;5026419;28;20426;-77
2022/10/15 04:57:15;;;;;;;12.48;10.00;;;13.10;99.90;;;;;;5027315;28;20032;-77
2022/10/15 04:59:42;;;;;;;12.70;9.95;;;13.10;99.90;;;;;;5023630;28;20034;-76
2022/10/15 05:02:08;;;;;;;13.05;9.30;;;13.10;99.90;;;;;;5034013;28;20568;-77
2022/10/15 05:04:33;;;;;;;13.32;10.05;;;13.10;99.90;;;;;;5032467;28;20115;-77
2022/10/15 05:06:59;;;;;;;12.55;9.57;;;13.10;99.90;;;;;;5023434;28;20366;-76
2022/10/15 05:09:24;;;;;;;11.75;9.13;;;13.10;99.90;;;;;;5024940;28;20041;-76
2022/10/15 05:11:50;;;;;;;12.85;9.38;;;13.10;99.90;;;;;;5025466;28;20188;-76
2022/10/15 05:14:16;;;;;;;15.90;9.68;;;13.10;99.90;;;;;;5033130;28;20043;-76
2022/10/15 05:16:42;;;;;;;13.82;10.02;;;13.10;99.90;;;;;;5028083;28;20469;-77
2022/10/15 05:19:10;;;;;;;13.88;10.82;;;13.00;99.90;;;;;;5029016;28;20164;-77
2022/10/15 05:21:36;;;;;;;12.50;9.73;;;13.10;99.90;;;;;;5034265;28;20965;-77
2022/10/15 05:24:02;;;;;;;13.30;9.88;;;13.10;99.90;;;;;;5031352;28;20098;-77
2022/10/15 05:26:29;;;;;;;15.85;10.50;;;13.10;99.90;;;;;;5030433;28;20436;-77
2022/10/15 05:28:56;;;;;;;15.13;11.38;;;13.00;99.90;;;;;;5034301;28;20045;-76
2022/10/15 05:31:24;;;;;;;21.42;11.68;;;13.10;99.90;;;;;;5032564;28;20045;-77
2022/10/15 05:33:52;;;;;;;15.10;11.80;;;13.10;99.90;;;;;;5024214;28;20497;-77
2022/10/15 05:36:26;;;;;;;16.50;12.10;;;13.10;99.90;;;;;;5025755;28;20033;-77
2022/10/15 05:38:57;;;;;;;17.23;12.52;;;13.00;99.90;;;;;;5026809;28;20033;-77
2022/10/15 05:41:24;;;;;;;18.35;10.88;;;13.10;99.90;;;;;;5024647;28;20160;-77
2022/10/15 05:43:51;;;;;;;16.27;11.65;;;13.10;99.90;;;;;;5026994;28;20029;-77
2022/10/15 05:46:18;;;;;;;15.43;11.15;;;13.10;99.90;;;;;;5027618;28;20678;-77
2022/10/15 05:48:47;;;;;;;15.95;11.40;;;;;;;;;;5029500;28;20072;-77
2022/10/15 05:51:15;;;;;;;14.38;11.00;;;13.10;99.90;;;;;;5024867;28;20429;-76
2022/10/15 05:53:42;;;;;;;13.63;10.60;;;13.10;99.90;;;;;;5032636;28;20037;-76
2022/10/15 05:56:08;;;;;;;17.90;10.73;;;13.10;99.90;;;;;;5039528;28;20139;-76
2022/10/15 05:58:35;;;;;;;25.42;13.02;;;13.00;99.90;;;;;;5035243;28;20451;-76
2022/10/15 06:01:03;;;;;;;17.58;11.68;;;13.10;99.90;;;;;;5031081;28;20524;-76
2022/10/15 06:03:29;;;;;;;19.63;11.60;;;13.00;99.90;;;;;;5031097;28;20086;-76
2022/10/15 06:05:55;;;;;;;13.85;11.10;;;13.10;99.90;;;;;;5017835;28;20029;-76
2022/10/15 06:08:22;;;;;;;12.98;10.45;;;13.10;99.90;;;;;;5021360;28;20036;-76
2022/10/15 06:10:48;;;;;;;11.82;9.80;;;13.10;99.90;;;;;;5025693;28;20150;-76
2022/10/15 06:13:16;;;;;;;14.10;9.70;;;13.10;99.90;;;;;;5029287;28;20024;-76
2022/10/15 06:15:43;;;;;;;14.82;9.25;;;13.10;99.90;;;;;;5024966;28;20485;-76
2022/10/15 06:18:11;;;;;;;18.33;10.50;;;13.10;99.90;;;;;;5025795;28;20029;-75
2022/10/15 06:20:37;;;;;;;13.85;10.50;;;13.10;99.90;;;;;;5030942;28;20433;-75
2022/10/15 06:23:04;;;;;;;12.95;9.82;;;13.10;99.90;;;;;;5030320;28;20021;-75
2022/10/15 06:25:30;;;;;;;12.90;9.82;;;13.10;99.90;;;;;;5036657;28;20434;-76
2022/10/15 06:28:04;;;;;;;13.32;9.50;;;13.10;99.90;;;;;;5034031;28;20080;-76
2022/10/15 06:30:30;;;;;;;14.15;10.32;;;13.10;99.90;;;;;;5028410;28;20053;-76
2022/10/15 06:32:56;;;;;;;14.68;10.80;;;13.20;99.90;;;;;;5034891;28;20090;-76
2022/10/15 06:35:24;;;;;;;20.90;15.43;;;13.10;99.90;;;;;;5032392;28;20021;-75
2022/10/15 06:37:50;;;;;;;18.35;15.30;;;13.10;99.90;;;;;;5030375;28;20637;-76
2022/10/15 06:40:16;;;;;;;16.15;11.88;;;13.10;99.90;;;;;;5033170;28;20112;-76
2022/10/15 06:42:42;;;;;;;20.63;14.38;;;13.20;99.90;;;;;;5036952;28;20025;-76
2022/10/15 06:45:11;;;;;;;24.98;17.23;;;13.20;99.90;;;;;;5038156;28;20029;-76
2022/10/15 06:47:40;;;;;;;25.83;19.25;;;13.10;99.90;;;;;;5038176;28;20025;-76
2022/10/15 06:50:06;;;;;;;70.25;19.15;;;13.20;99.90;;;;;;5033047;28;20041;-76
2022/10/15 06:52:32;;;;;;;84.40;16.08;;;13.20;99.90;;;;;;5030464;28;20037;-76
2022/10/15 06:54:58;;;;;;;33.00;13.18;;;13.10;99.90;;;;;;5023266;28;20128;-76
2022/10/15 06:57:24;;;;;;;80.10;12.18;;;13.20;99.90;;;;;;5032532;28;20108;-76
2022/10/15 06:59:50;;;;;;;35.90;16.30;;;13.20;99.90;;;;;;5036759;28;20089;-76
2022/10/15 07:02:18;;;;;;;57.75;18.42;;;13.20;99.90;;;;;;5025498;28;20032;-76
2022/10/15 07:04:44;;;;;;;59.05;33.30;;;13.20;99.90;;;;;;5020828;28;20022;-76
2022/10/15 07:07:10;;;;;;;66.05;42.97;;;13.20;99.90;;;;;;5026809;28;20056;-75
2022/10/15 07:09:36;;;;;;;53.58;36.03;;;13.20;99.90;;;;;;5025645;28;20033;-76
2022/10/15 07:12:03;;;;;;;51.15;37.45;;;13.20;99.90;;;;;;5036288;28;20519;-76
2022/10/15 07:14:28;;;;;;;62.47;46.03;;;13.20;99.90;;;;;;5033748;28;20033;-76
2022/10/15 07:16:54;;;;;;;78.93;55.58;;;13.30;99.90;;;;;;5025125;28;20033;-76
2022/10/15 07:19:20;;;;;;;72.70;55.83;;;13.30;99.90;;;;;;5030644;28;20546;-76
2022/10/15 07:21:45;;;;;;;51.90;39.83;;;13.40;99.90;;;;;;5036186;28;20033;-76
2022/10/15 07:24:11;;;;;;;39.15;28.38;;;13.40;99.90;;;;;;5026595;28;20021;-79
2022/10/15 07:26:36;;;;;;;27.88;19.85;;;13.50;99.90;;;;;;5028955;28;20053;-79
2022/10/15 07:29:03;;;;;;;22.50;16.25;;;13.50;99.90;;;;;;5040965;28;20064;-79
2022/10/15 07:31:29;;;;;;;16.05;11.80;;;13.60;99.90;;;;;;5026797;28;20509;-79
2022/10/15 07:33:55;;;;;;;19.65;11.82;;;13.60;99.90;;;;;;5026283;28;20028;-78
2022/10/15 07:36:21;;;;;;;14.20;10.60;;;13.70;99.90;;;;;;5033111;28;20029;-79
2022/10/15 07:38:46;;;;;;;13.88;9.32;;;13.70;99.90;;;;;;5039352;28;20042;-79
2022/10/15 07:41:12;;;;;;;16.02;11.25;;;13.80;99.90;;;;;;5032709;28;20364;-79
2022/10/15 07:43:38;;;;;;;28.02;21.10;;;13.90;99.90;;;;;;5045136;28;20031;-79
2022/10/15 07:46:05;;;;;;;27.52;21.25;;;14.00;99.90;;;;;;5043097;28;20212;-79
2022/10/15 07:48:31;;;;;;;12.32;9.25;;;14.10;99.90;;;;;;5029841;28;20061;-79
2022/10/15 07:50:58;;;;;;;15.15;8.82;;;14.30;99.90;;;;;;5045349;28;20025;-79
2022/10/15 07:53:25;;;;;;;10.55;8.95;;;14.40;99.90;;;;;;5041621;28;20407;-78
2022/10/15 07:55:50;;;;;;;9.10;6.88;;;14.40;99.90;;;;;;5027019;28;20034;-79
2022/10/15 07:58:16;;;;;;;7.72;6.45;;;14.40;99.90;;;;;;5029902;28;20654;-79
2022/10/15 08:00:42;;;;;;;6.78;5.97;;;14.40;99.90;;;;;;5030547;28;20063;-78
2022/10/15 08:03:08;;;;;;;7.05;5.32;;;14.30;99.90;;;;;;5030311;28;20024;-78
2022/10/15 08:05:34;;;;;;;9.80;5.63;;;14.30;99.90;;;;;;5033920;28;20114;-79
2022/10/15 08:07:59;;;;;;;21.52;19.30;;;14.40;99.90;;;;;;5042282;28;20028;-79
2022/10/15 08:10:26;;;;;;;26.10;23.50;;;14.40;99.90;;;;;;5049150;28;20025;-78
2022/10/15 08:12:52;;;;;;;23.27;17.88;;;14.40;99.90;;;;;;5029587;28;20115;-73
2022/10/15 08:15:17;;;;;;;24.83;21.98;;;14.40;99.90;;;;;;5030081;28;20027;-73
2022/10/15 08:17:43;;;;;;;20.92;18.52;;;14.60;99.90;;;;;;5028365;28;20064;-73
2022/10/15 08:20:09;;;;;;;21.52;19.27;;;14.60;99.90;;;;;;5035766;28;20429;-73
2022/10/15 08:22:34;;;;;;;21.33;19.17;;;14.60;99.90;;;;;;5034132;28;20282;-74
2022/10/15 08:25:00;;;;;;;23.45;20.17;;;14.70;99.90;;;;;;5043412;28;20022;-74
2022/10/15 08:27:26;;;;;;;17.17;10.32;;;14.70;99.90;;;;;;5026182;28;20557;-73
2022/10/15 08:29:51;;;;;;;5.00;4.28;;;14.70;99.90;;;;;;5034147;28;20038;-73
2022/10/15 08:32:17;;;;;;;5.88;3.50;;;14.70;99.90;;;;;;5047751;28;20043;-73
2022/10/15 08:34:43;;;;;;;5.53;2.80;;;14.70;99.90;;;;;;5038084;28;20460;-73
2022/10/15 08:37:08;;;;;;;3.40;3.10;;;14.70;99.90;;;;;;5033616;28;20017;-73
2022/10/15 08:39:34;;;;;;;4.75;3.65;;;14.70;99.90;;;;;;5032773;28;20116;-73
2022/10/15 08:42:17;;;;;;;3.90;3.15;;;14.80;99.90;;;;;;5042048;28;20174;-74
2022/10/15 08:44:52;;;;;;;5.03;4.28;;;15.00;99.90;;;;;;5034529;28;20476;-73
2022/10/15 08:47:45;;;;;;;4.63;3.78;;;15.10;99.90;;;;;;5032661;28;20029;-73
2022/10/15 08:50:50;;;;;;;3.45;3.00;;;15.20;99.90;;;;;;5026875;28;20117;-73
2022/10/15 08:53:20;;;;;;;3.63;2.70;;;15.10;99.90;;;;;;5031075;28;20033;-73
2022/10/15 08:55:50;;;;;;;4.15;2.75;;;15.30;99.90;;;;;;5032343;28;20033;-73
2022/10/15 08:58:34;;;;;;;2.67;2.35;;;15.50;99.90;;;;;;5032069;28;20021;-72
2022/10/15 09:01:17;;;;;;;3.50;2.53;;;15.60;99.90;;;;;;5035599;28;20133;-73
2022/10/15 09:04:04;;;;;;;2.33;2.13;;;15.80;99.90;;;;;;5030607;28;20473;-73
2022/10/15 09:06:34;;;;;;;2.65;1.60;;;16.00;99.90;;;;;;5037386;28;20055;-72
2022/10/15 09:09:18;;;;;;;2.53;1.92;;;16.00;99.90;;;;;;5032483;28;20037;-73
2022/10/15 09:11:56;;;;;;;1.40;1.20;;;16.20;99.90;;;;;;5042124;28;20025;-72
2022/10/15 09:14:27;;;;;;;2.45;1.40;;;16.30;99.90;;;;;;5031342;28;20493;-72
2022/10/15 09:16:53;;;;;;;2.85;2.10;;;16.40;99.90;;;;;;5036554;28;20029;-73
2022/10/15 09:19:22;;;;;;;2.33;1.90;;;16.30;99.90;;;;;;5032701;28;20107;-72
2022/10/15 09:21:50;;;;;;;4.95;2.90;;;16.20;99.90;;;;;;5031214;28;20060;-72
2022/10/15 09:24:24;;;;;;;7.13;4.80;;;16.10;99.90;;;;;;5031556;28;20203;-72
2022/10/15 09:27:02;;;;;;;13.30;4.20;;;15.90;99.90;;;;;;5032227;28;20025;-72
2022/10/15 09:30:03;;;;;;;9.63;5.90;;;15.80;99.90;;;;;;5026825;28;20191;-72
2022/10/15 09:32:31;;;;;;;4.80;3.70;;;15.70;99.90;;;;;;5023536;28;20065;-72
2022/10/15 09:35:20;;;;;;;5.63;4.72;;;15.60;99.90;;;;;;5025921;28;20033;-72
2022/10/15 09:38:05;;;;;;;4.20;2.33;;;15.60;99.90;;;;;;5035896;28;20126;-72
2022/10/15 09:40:36;;;;;;;1.70;1.60;;;15.50;99.90;;;;;;5040601;28;20492;-73
2022/10/15 09:43:04;;;;;;;3.13;1.80;;;15.50;99.90;;;;;;5028668;28;20115;-72
2022/10/15 09:45:30;;;;;;;2.13;1.95;;;15.50;99.90;;;;;;5031623;28;20037;-72
2022/10/15 09:47:59;;;;;;;3.13;2.85;;;15.50;99.90;;;;;;5030332;28;20033;-72
2022/10/15 09:50:33;;;;;;;35.33;28.25;;;15.40;99.90;;;;;;5027756;28;20045;-72
2022/10/15 09:53:19;;;;;;;21.10;18.80;;;15.40;99.90;;;;;;5031186;28;20088;-72
2022/10/15 09:55:55;;;;;;;4.60;4.18;;;15.30;99.90;;;;;;5026643;28;20034;-72
2022/10/15 09:58:49;;;;;;;2.42;2.20;;;15.30;99.90;;;;;;5034663;28;20083;-73
2022/10/15 10:01:24;;;;;;;1.95;1.67;;;15.30;99.90;;;;;;5028092;28;20040;-72
2022/10/15 10:04:13;;;;;;;4.22;1.88;;;15.40;99.90;;;;;;5023812;28;20059;-72
2022/10/15 10:06:44;;;;;;;2.90;1.40;;;15.40;99.90;;;;;;5037328;28;20033;-72
2022/10/15 10:09:16;;;;;;;2.20;1.13;;;15.40;99.90;;;;;;5027762;28;20025;-73
2022/10/15 10:12:02;;;;;;;2.60;2.40;;;15.50;99.90;;;;;;5032186;28;20505;-71
2022/10/15 10:14:43;;;;;;;3.28;2.20;;;15.50;99.90;;;;;;5024019;28;20048;-72
2022/10/15 10:17:18;;;;;;;1.95;1.33;;;15.50;99.90;;;;;;5038996;28;20033;-72
2022/10/15 10:20:15;;;;;;;3.67;1.52;;;15.60;99.90;;;;;;5030888;28;20123;-72
2022/10/15 10:22:59;;;;;;;2.03;1.85;;;15.60;99.90;;;;;;5025939;28;20107;-71
2022/10/15 10:25:37;;;;;;;2.00;1.90;;;15.80;99.90;;;;;;5022375;28;20029;-72
2022/10/15 10:28:08;;;;;;;3.50;2.30;;;16.00;99.90;;;;;;5036644;28;20156;-72
2022/10/15 10:30:54;;;;;;;6.53;2.22;;;16.20;99.90;;;;;;5029618;28;20060;-72
2022/10/15 10:33:28;;;;;;;2.10;1.90;;;16.30;99.90;;;;;;5031095;28;20036;-72
2022/10/15 10:35:54;;;;;;;2.22;2.05;;;16.30;99.90;;;;;;5030612;28;20033;-72
2022/10/15 10:38:32;;;;;;;5.10;3.90;;;16.20;99.90;;;;;;5031834;28;20513;-72
2022/10/15 10:41:09;;;;;;;6.82;4.88;;;16.10;99.90;;;;;;5036918;28;20045;-72
2022/10/15 10:43:37;;;;;;;4.55;3.00;;;16.00;99.90;;;;;;5031738;28;20389;-72
2022/10/15 10:46:18;;;;;;;4.43;3.17;;;16.00;99.90;;;;;;5029024;28;20516;-72
2022/10/15 10:48:51;;;;;;;4.18;3.13;;;16.00;99.90;;;;;;5031742;28;20486;-72
2022/10/15 10:51:23;;;;;;;3.97;2.70;;;16.00;99.90;;;;;;5027164;28;20460;-72
2022/10/15 10:54:00;;;;;;;2.92;2.03;;;16.00;99.90;;;;;;5032121;28;20037;-72
2022/10/15 10:56:43;;;;;;;3.03;2.38;;;16.10;99.90;;;;;;5033626;28;20036;-73
2022/10/15 10:59:19;;;;;;;3.70;2.42;;;16.20;99.90;;;;;;5030118;28;20576;-72
2022/10/15 11:01:46;;;;;;;3.70;2.00;;;16.20;99.90;;;;;;5029042;28;20026;-72
2022/10/15 11:04:17;;;;;;;1.90;1.70;;;16.10;99.90;;;;;;5029833;28;20820;-72
2022/10/15 11:06:59;;;;;;;1.90;1.60;;;16.00;99.90;;;;;;5031868;28;20141;-72
2022/10/15 11:09:57;;;;;;;2.22;2.03;;;16.00;99.90;;;;;;5033870;28;20098;-72
2022/10/15 11:12:48;;;;;;;1.70;1.35;;;16.10;99.90;;;;;;5029402;28;20057;-72
2022/10/15 11:15:33;;;;;;;4.00;1.10;;;16.10;99.90;;;;;;5039697;28;20484;-72
2022/10/15 11:18:48;;;;;;;1.65;1.30;;;16.20;99.90;;;;;;5032428;28;20029;-72
2022/10/15 11:21:32;;;;;;;1.30;1.20;;;16.20;99.90;;;;;;5031380;28;20029;-72
2022/10/15 11:24:16;;;;;;;;;;;16.20;99.90;;;;;;5032354;28;20040;-73
2022/10/15 11:26:47;;;;;;;;;;;16.20;99.90;;;;;;5036414;28;19940;-72
2022/10/15 11:29:25;;;;;;;4.50;1.38;;;16.20;99.90;;;;;;5029296;28;19924;-71
2022/10/15 11:32:14;;;;;;;4.82;1.27;;;16.20;99.90;;;;;;5028992;28;20040;-72
2022/10/15 11:35:21;;;;;;;7.28;1.42;;;16.20;99.90;;;;;;5037710;28;20033;-72
2022/10/15 11:38:12;;;;;;;3.10;1.00;;;16.20;99.90;;;;;;5031052;28;20072;-72
2022/10/15 11:41:04;;;;;;;66.93;6.70;;;16.30;99.90;;;;;;5032554;28;20076;-73
2022/10/15 11:43:42;;;;;;;4.75;1.45;;;16.40;99.90;;;;;;4334431;28;10021630;-70
2022/10/15 11:46:07;;;;;;;11.18;2.03;;;16.40;99.90;;;;;;5061250;28;20043;-70
2022/10/15 11:48:54;;;;;;;4.03;1.00;;;16.50;99.90;;;;;;5062659;28;20036;-70
2022/10/15 11:51:57;;;;;;;0.85;0.85;;;16.50;99.90;;;;;;5071635;28;20122;-70
2022/10/15 11:54:28;;;;;;;1.35;1.10;;;16.50;99.90;;;;;;5068136;28;20042;-70
2022/10/15 11:56:58;;;;;;;2.85;1.10;;;16.40;99.90;;;;;;5058585;28;20054;-70
2022/10/15 11:59:32;;;;;;;2.45;1.13;;;16.40;99.90;;;;;;5069461;28;20032;-70
2022/10/15 12:02:07;;;;;;;2.17;1.40;;;16.40;99.90;;;;;;5065396;28;22951;-71
2022/10/15 12:04:45;;;;;;;3.75;2.63;;;16.30;99.90;;;;;;5061719;28;20058;-70
2022/10/15 12:07:20;;;;;;;43.17;22.40;;;16.40;99.90;;;;;;5069946;28;20416;-70
2022/10/15 12:09:51;;;;;;;2.55;2.13;;;16.30;99.90;;;;;;5067554;28;20154;-70
2022/10/15 12:12:29;;;;;;;1.50;1.40;;;16.30;99.90;;;;;;5069374;28;20295;-70
2022/10/15 12:15:27;;;;;;;2.45;1.90;;;16.40;99.90;;;;;;5063621;28;20058;-71
2022/10/15 12:18:30;;;;;;;1.95;1.75;;;16.30;99.90;;;;;;5026056;28;20073;-71
2022/10/15 12:20:57;;;;;;;1.17;1.07;;;16.20;99.90;;;;;;5031246;28;20037;-70
2022/10/15 12:23:39;;;;;;;3.42;1.20;;;16.20;99.90;;;;;;5030912;28;20034;-70
2022/10/15 12:26:23;;;;;;;12.70;1.65;;;16.20;99.90;;;;;;5032566;28;21354;-70
2022/10/15 12:28:55;;;;;;;1.38;1.25;;;16.20;99.90;;;;;;5036224;28;20455;-71
2022/10/15 12:31:22;;;;;;;1.35;1.00;;;16.30;99.90;;;;;;5033271;28;20513;-69
2022/10/15 12:33:55;;;;;;;0.82;0.82;;;16.30;99.90;;;;;;5028733;28;20053;-70
2022/10/15 12:36:28;;;;;;;2.58;0.80;;;16.30;99.90;;;;;;5032150;28;20056;-70
2022/10/15 12:39:20;;;;;;;1.40;0.70;;;16.40;99.90;;;;;;5029473;28;20041;-70
2022/10/15 12:41:47;;;;;;;1.42;0.80;;;16.50;99.90;;;;;;5039006;28;20032;-69
2022/10/15 12:44:22;;;;;;;0.80;0.80;;;16.40;99.90;;;;;;5034130;28;20054;-70
2022/10/15 12:46:48;;;;;;;2.65;0.90;;;16.40;99.90;;;;;;5024819;28;20329;-70
2022/10/15 12:49:26;;;;;;;1.40;0.60;;;16.40;99.90;;;;;;5033548;28;20029;-69
2022/10/15 12:51:53;;;;;;;2.35;0.80;;;16.40;99.90;;;;;;5026645;28;20044;-70
2022/10/15 12:54:32;;;;;;;0.82;0.77;;;16.30;99.90;;;;;;5027437;28;20040;-70
2022/10/15 12:56:58;;;;;;;1.85;0.77;;;16.30;99.90;;;;;;5029319;28;20547;-71
2022/10/15 12:59:30;;;;;;;0.70;0.70;;;16.30;99.90;;;;;;5030699;28;20033;-70
2022/10/15 13:01:55;;;;;;;1.40;0.85;;;16.20;99.90;;;;;;5027218;28;20037;-69
2022/10/15 13:04:21;;;;;;;1.52;0.90;;;16.20;99.90;;;;;;5023915;28;20029;-71